createdAt,value
2023-12-31T00:00:48.184Z,7.57
2023-12-31T00:05:54.121Z,7.53
2023-12-31T00:11:01.869Z,7.47
2023-12-31T00:16:06.464Z,7.43
2023-12-31T00:21:11.397Z,7.39
2023-12-31T00:26:16.755Z,7.35
2023-12-31T00:31:23.284Z,7.32
2023-12-31T00:36:26.839Z,7.31
2023-12-31T00:41:31.643Z,7.29
2023-12-31T00:46:35.046Z,7.29
2023-12-31T00:51:41.534Z,7.28
2023-12-31T00:56:55.467Z,7.28
2023-12-31T01:02:06.279Z,7.27
2023-12-31T01:07:10.870Z,7.25
2023-12-31T01:12:15.724Z,7.24
2023-12-31T01:17:22.174Z,7.25
2023-12-31T01:22:27.658Z,7.25
2023-12-31T01:27:46.057Z,7.24
2023-12-31T01:33:05.949Z,7.28
2023-12-31T01:38:09.497Z,7.29
2023-12-31T01:43:14.385Z,7.32
2023-12-31T01:48:20.679Z,7.34
2023-12-31T01:53:24.423Z,7.37
2023-12-31T01:58:29.394Z,7.39
2023-12-31T02:03:33.650Z,7.39
2023-12-31T02:08:39.223Z,7.41
2023-12-31T02:13:47.133Z,7.44
2023-12-31T02:18:50.952Z,7.45
2023-12-31T02:23:55.364Z,7.47
2023-12-31T02:29:05.568Z,7.48
2023-12-31T02:34:12.447Z,7.45
2023-12-31T02:39:17.424Z,7.43
2023-12-31T02:44:27.515Z,7.40
2023-12-31T02:49:31.298Z,7.40
2023-12-31T02:54:37.308Z,7.42
2023-12-31T02:59:41.785Z,7.44
2023-12-31T03:04:45.144Z,7.46
2023-12-31T03:09:48.767Z,7.49
2023-12-31T03:14:53.649Z,7.55
2023-12-31T03:19:56.814Z,7.60
2023-12-31T03:25:00.083Z,7.62
2023-12-31T03:30:05.494Z,7.64
2023-12-31T03:35:09.847Z,7.62
2023-12-31T03:40:14.304Z,7.64
2023-12-31T03:45:21.268Z,7.62
2023-12-31T03:50:24.755Z,7.61
2023-12-31T03:55:28.446Z,7.62
2023-12-31T04:00:36.810Z,7.66
2023-12-31T04:05:41.570Z,7.65
2023-12-31T04:10:45.494Z,7.67
2023-12-31T04:15:50.687Z,7.70
2023-12-31T04:20:55.824Z,7.73
2023-12-31T04:26:08.386Z,7.74
2023-12-31T04:31:13.691Z,7.78
2023-12-31T04:36:17.093Z,7.76
2023-12-31T04:41:24.307Z,7.71
2023-12-31T04:46:29.610Z,7.70
2023-12-31T04:51:33.056Z,7.67
2023-12-31T04:56:39.431Z,7.67
2023-12-31T05:01:44.590Z,7.64
2023-12-31T05:06:47.943Z,7.60
2023-12-31T05:11:51.740Z,7.59
2023-12-31T05:16:56.698Z,7.56
2023-12-31T05:22:00.042Z,7.52
2023-12-31T05:27:04.045Z,7.54
2023-12-31T05:32:09.311Z,7.56
2023-12-31T05:37:12.974Z,7.56
2023-12-31T05:42:16.742Z,7.56
2023-12-31T05:47:44.615Z,7.56
2023-12-31T05:52:50.434Z,7.60
2023-12-31T05:57:54.018Z,7.61
2023-12-31T06:03:02.270Z,7.62
2023-12-31T06:08:09.845Z,7.64
2023-12-31T06:13:14.476Z,7.64
2023-12-31T06:18:24.399Z,7.63
2023-12-31T06:23:28.155Z,7.62
2023-12-31T06:28:37.977Z,7.59
2023-12-31T06:33:43.486Z,7.56
2023-12-31T06:38:50.159Z,7.54
2023-12-31T06:43:53.602Z,7.51
2023-12-31T06:49:00.546Z,7.47
2023-12-31T06:54:04.433Z,7.41
2023-12-31T06:59:08.515Z,7.35
2023-12-31T07:04:13.474Z,7.30
2023-12-31T07:09:17.136Z,7.27
2023-12-31T07:14:22.226Z,7.29
2023-12-31T07:19:26.915Z,7.33
2023-12-31T07:24:30.250Z,7.38
2023-12-31T07:29:33.495Z,7.44
2023-12-31T07:34:38.858Z,7.50
2023-12-31T07:39:43.376Z,7.59
2023-12-31T07:44:47.221Z,7.77
2023-12-31T07:49:53.267Z,7.95
2023-12-31T07:54:56.977Z,8.11
2023-12-31T08:00:00.303Z,8.21
2023-12-31T08:05:06.522Z,8.28
2023-12-31T08:10:12.684Z,8.33
2023-12-31T08:15:17.709Z,8.45
2023-12-31T08:20:22.877Z,8.55
2023-12-31T08:25:26.511Z,8.57
2023-12-31T08:30:30.366Z,8.60
2023-12-31T08:35:35.240Z,8.70
2023-12-31T08:40:39.315Z,8.74
2023-12-31T08:45:48.169Z,8.66
2023-12-31T08:50:53.535Z,8.72
2023-12-31T08:55:58.571Z,8.70
2023-12-31T09:01:01.972Z,8.73
2023-12-31T09:06:08.546Z,8.80
2023-12-31T09:11:12.260Z,8.83
2023-12-31T09:16:15.458Z,8.90
2023-12-31T09:21:20.424Z,9.05
2023-12-31T09:26:23.677Z,9.19
2023-12-31T09:31:27.553Z,9.34
2023-12-31T09:36:32.461Z,9.49
2023-12-31T09:41:36.795Z,9.63
2023-12-31T09:46:41.479Z,9.77
2023-12-31T09:51:46.984Z,9.88
2023-12-31T09:56:52.979Z,9.96
2023-12-31T10:01:58.905Z,10.06
2023-12-31T10:07:04.283Z,10.15
2023-12-31T10:12:08.549Z,10.17
2023-12-31T10:17:12.429Z,10.27
2023-12-31T10:22:17.691Z,10.35
2023-12-31T10:27:22.162Z,10.33
2023-12-31T10:32:25.881Z,10.33
2023-12-31T10:37:31.069Z,10.34
2023-12-31T10:42:34.650Z,10.35
2023-12-31T10:47:39.502Z,10.36
2023-12-31T10:52:46.346Z,10.33
2023-12-31T10:57:53.775Z,10.32
2023-12-31T11:03:00.427Z,10.34
2023-12-31T11:08:06.901Z,10.37
2023-12-31T11:13:12.936Z,10.36
2023-12-31T11:18:34.218Z,10.41
2023-12-31T11:23:48.853Z,10.46
2023-12-31T11:28:53.348Z,10.52
2023-12-31T11:33:59.444Z,10.56
2023-12-31T11:39:16.229Z,10.59
2023-12-31T11:44:42.798Z,10.64
2023-12-31T11:49:52.682Z,10.68
2023-12-31T11:55:02.546Z,10.68
2023-12-31T12:00:09.331Z,10.72
2023-12-31T12:05:15.496Z,10.76
2023-12-31T12:10:22.706Z,10.79
2023-12-31T12:15:26.323Z,10.87
2023-12-31T12:20:30.022Z,10.92
2023-12-31T12:25:34.880Z,10.97
2023-12-31T12:30:43.651Z,11.02
2023-12-31T12:35:47.911Z,11.09
2023-12-31T12:41:02.328Z,11.13
2023-12-31T12:46:12.076Z,11.15
2023-12-31T12:51:15.733Z,11.14
2023-12-31T12:56:23.636Z,11.18
2023-12-31T13:01:27.873Z,11.25
2023-12-31T13:06:31.693Z,11.27
2023-12-31T13:11:37.144Z,11.31
2023-12-31T13:16:49.583Z,11.33
2023-12-31T13:21:54.138Z,11.35
2023-12-31T13:26:59.147Z,11.38
2023-12-31T13:32:05.040Z,11.41
2023-12-31T13:37:08.777Z,11.42
2023-12-31T13:42:13.860Z,11.41
2023-12-31T13:47:17.461Z,11.42
2023-12-31T13:52:23.536Z,11.42
2023-12-31T13:57:29.361Z,11.39
2023-12-31T14:02:33.971Z,11.37
2023-12-31T14:07:38.385Z,11.34
2023-12-31T14:12:52.655Z,11.31
2023-12-31T14:17:56.549Z,11.29
2023-12-31T14:23:01.168Z,11.28
2023-12-31T14:28:13.690Z,11.26
2023-12-31T14:33:18.581Z,11.26
2023-12-31T14:38:22.718Z,11.25
2023-12-31T14:43:28.118Z,11.24
2023-12-31T14:48:31.504Z,11.22
2023-12-31T14:53:35.142Z,11.23
2023-12-31T14:58:40.340Z,11.23
2023-12-31T15:03:43.952Z,11.23
2023-12-31T15:08:54.274Z,11.23
2023-12-31T15:13:59.547Z,11.23
2023-12-31T15:19:03.626Z,11.25
2023-12-31T15:24:09.512Z,11.25
2023-12-31T15:29:14.736Z,11.21
2023-12-31T15:34:18.637Z,11.20
2023-12-31T15:39:24.490Z,11.19
2023-12-31T15:44:29.773Z,11.15
2023-12-31T15:49:34.016Z,11.15
2023-12-31T15:54:37.807Z,11.13
2023-12-31T15:59:42.964Z,11.13
2023-12-31T16:04:47.396Z,11.10
2023-12-31T16:09:52.625Z,11.12
2023-12-31T16:15:00.355Z,11.12
2023-12-31T16:20:04.827Z,11.10
2023-12-31T16:25:08.564Z,11.06
2023-12-31T16:30:15.386Z,11.03
2023-12-31T16:35:25.084Z,11.01
2023-12-31T16:40:29.137Z,10.90
2023-12-31T16:45:34.258Z,10.79
2023-12-31T16:50:38.061Z,10.67
2023-12-31T16:55:42.220Z,10.60
2023-12-31T17:00:47.455Z,10.53
2023-12-31T17:05:53.203Z,10.43
2023-12-31T17:10:57.566Z,10.33
2023-12-31T17:16:02.682Z,10.26
2023-12-31T17:21:06.770Z,10.21
2023-12-31T17:26:10.776Z,10.18
2023-12-31T17:31:18.754Z,10.23
2023-12-31T17:36:22.487Z,10.24
2023-12-31T17:41:25.889Z,10.21
2023-12-31T17:46:30.713Z,10.14
2023-12-31T17:51:33.980Z,10.05
2023-12-31T17:56:41.440Z,9.92
2023-12-31T18:01:47.107Z,9.80
2023-12-31T18:06:50.887Z,9.69
2023-12-31T18:12:07.643Z,9.62
2023-12-31T18:17:12.281Z,9.56
2023-12-31T18:22:15.731Z,9.51
2023-12-31T18:27:19.366Z,9.48
2023-12-31T18:32:24.326Z,9.45
2023-12-31T18:37:27.971Z,9.44
2023-12-31T18:42:34.260Z,9.49
2023-12-31T18:47:39.184Z,9.51
2023-12-31T18:52:47.418Z,9.51
2023-12-31T18:57:50.823Z,9.44
2023-12-31T19:02:55.557Z,9.38
2023-12-31T19:07:58.960Z,9.33
2023-12-31T19:13:02.380Z,9.32
2023-12-31T19:18:09.257Z,9.33
2023-12-31T19:23:13.282Z,9.35
2023-12-31T19:28:17.111Z,9.39
2023-12-31T19:33:36.763Z,9.42
2023-12-31T19:38:40.586Z,9.42
2023-12-31T19:44:05.577Z,9.41
2023-12-31T19:49:10.945Z,9.40
2023-12-31T19:54:20.994Z,9.38
2023-12-31T19:59:24.351Z,9.37
2023-12-31T20:04:29.117Z,9.37
2023-12-31T20:09:33.976Z,9.36
2023-12-31T20:14:38.354Z,9.37
2023-12-31T20:19:46.552Z,9.37
2023-12-31T20:24:50.017Z,9.37
2023-12-31T20:29:53.555Z,9.36
2023-12-31T20:35:04.603Z,9.38
2023-12-31T20:40:09.821Z,9.37
2023-12-31T20:45:15.001Z,9.40
2023-12-31T20:50:24.763Z,9.42
2023-12-31T20:55:32.806Z,9.44
2023-12-31T21:00:36.462Z,9.46
2023-12-31T21:05:41.521Z,9.47
2023-12-31T21:10:45.009Z,9.49
2023-12-31T21:15:50.523Z,9.47
2023-12-31T21:20:55.334Z,9.45
2023-12-31T21:25:59.120Z,9.43
2023-12-31T21:31:03.386Z,9.41
2023-12-31T21:36:09.782Z,9.41
2023-12-31T21:41:21.801Z,9.38
2023-12-31T21:46:35.939Z,9.36
2023-12-31T21:51:41.256Z,9.33
2023-12-31T21:56:57.661Z,9.31
2023-12-31T22:02:15.815Z,9.29
2023-12-31T22:07:21.118Z,9.24
2023-12-31T22:12:24.585Z,9.21
2023-12-31T22:17:29.371Z,9.19
2023-12-31T22:22:34.574Z,9.17
2023-12-31T22:27:40.336Z,9.18
2023-12-31T22:32:45.115Z,9.16
2023-12-31T22:37:50.747Z,9.17
2023-12-31T22:42:56.634Z,9.16
2023-12-31T22:48:04.448Z,9.19
2023-12-31T22:53:10.112Z,9.18
2023-12-31T22:58:17.425Z,9.18
2023-12-31T23:03:20.833Z,9.19
2023-12-31T23:08:26.900Z,9.21
2023-12-31T23:13:33.682Z,9.23
2023-12-31T23:18:38.059Z,9.23
2023-12-31T23:23:47.128Z,9.19
2023-12-31T23:28:50.600Z,9.18
2023-12-31T23:33:54.672Z,9.16
2023-12-31T23:39:00.840Z,9.15
2023-12-31T23:44:08.560Z,9.13
2023-12-31T23:49:12.884Z,9.13
2023-12-31T23:54:21.156Z,9.11
2023-12-31T23:59:24.570Z,9.08
